createdAt,value
2018-12-21T00:01:12.000Z,23.10
2018-12-21T00:03:41.908Z,23.20
2018-12-21T00:06:11.243Z,23.40
2018-12-21T00:08:41.442Z,23.30
2018-12-21T00:11:10.891Z,23.20
2018-12-21T00:13:40.208Z,23.10
2018-12-21T00:16:09.487Z,22.90
2018-12-21T00:18:39.798Z,23.00
2018-12-21T00:21:09.057Z,22.90
2018-12-21T00:23:38.245Z,22.90
2018-12-21T00:26:07.469Z,22.80
2018-12-21T00:28:36.761Z,22.80
2018-12-21T00:31:11.449Z,22.90
2018-12-21T00:33:46.123Z,22.90
2018-12-21T00:36:20.714Z,22.90
2018-12-21T00:38:55.608Z,22.90
2018-12-21T00:41:24.262Z,22.90
2018-12-21T00:43:55.773Z,22.80
2018-12-21T00:46:26.731Z,22.70
2018-12-21T00:48:56.287Z,22.70
2018-12-21T00:51:30.140Z,22.70
2018-12-21T00:53:57.026Z,22.60
2018-12-21T00:56:26.864Z,22.60
2018-12-21T00:58:56.163Z,22.40
2018-12-21T01:01:25.859Z,22.50
2018-12-21T01:03:55.696Z,22.50
2018-12-21T01:06:24.982Z,22.40
2018-12-21T01:08:54.325Z,22.40
2018-12-21T01:11:36.866Z,22.30
2018-12-21T01:14:06.304Z,22.30
2018-12-21T01:20:02.894Z,22.50
2018-12-21T01:22:33.732Z,22.50
2018-12-21T01:25:03.173Z,22.60
2018-12-21T01:27:32.577Z,22.70
2018-12-21T01:30:01.936Z,22.70
2018-12-21T01:32:31.219Z,22.70
2018-12-21T01:35:00.569Z,22.70
2018-12-21T01:37:29.854Z,22.70
2018-12-21T01:39:59.138Z,22.70
2018-12-21T01:42:28.362Z,22.60
2018-12-21T01:44:57.716Z,22.70
2018-12-21T01:47:27.073Z,22.60
2018-12-21T01:49:56.361Z,22.50
2018-12-21T01:52:25.656Z,22.60
2018-12-21T01:54:54.994Z,22.50
2018-12-21T01:57:24.713Z,22.40
2018-12-21T01:59:54.063Z,22.50
2018-12-21T02:02:23.404Z,22.50
2018-12-21T02:04:53.104Z,22.50
2018-12-21T02:07:35.859Z,22.60
2018-12-21T02:10:07.220Z,22.60
2018-12-21T02:12:36.439Z,22.70
2018-12-21T02:15:06.160Z,22.70
2018-12-21T02:17:35.380Z,22.70
2018-12-21T02:20:05.040Z,22.70
2018-12-21T02:22:34.393Z,22.80
2018-12-21T02:25:03.693Z,22.70
2018-12-21T02:27:33.150Z,22.80
2018-12-21T02:30:03.596Z,22.70
2018-12-21T02:32:32.878Z,22.70
2018-12-21T02:35:02.131Z,22.70
2018-12-21T02:37:31.341Z,22.70
2018-12-21T02:40:01.662Z,22.50
2018-12-21T02:42:30.929Z,22.30
2018-12-21T02:45:00.210Z,22.30
2018-12-21T02:47:29.465Z,22.30
2018-12-21T02:49:58.751Z,22.10
2018-12-21T02:52:28.294Z,22.00
2018-12-21T02:54:57.547Z,22.10
2018-12-21T02:57:26.773Z,22.00
2018-12-21T02:59:55.996Z,22.10
2018-12-21T03:02:25.343Z,22.10
2018-12-21T03:04:54.894Z,22.00
2018-12-21T03:07:24.247Z,22.10
2018-12-21T03:09:56.658Z,22.10
2018-12-21T03:12:25.968Z,22.00
2018-12-21T03:14:55.193Z,22.10
2018-12-21T03:17:24.455Z,22.20
2018-12-21T03:19:53.679Z,22.10
2018-12-21T03:22:23.041Z,22.10
2018-12-21T03:24:52.296Z,21.90
2018-12-21T03:27:21.603Z,21.90
2018-12-21T03:30:01.893Z,21.90
2018-12-21T03:32:31.208Z,21.80
2018-12-21T03:35:00.471Z,21.90
2018-12-21T03:37:29.714Z,22.00
2018-12-21T03:43:26.529Z,22.10
2018-12-21T03:46:03.137Z,22.10
2018-12-21T03:48:32.597Z,22.20
2018-12-21T03:54:43.225Z,22.20
2018-12-21T03:57:15.645Z,22.20
2018-12-21T03:59:46.888Z,22.10
2018-12-21T04:02:16.193Z,22.00
2018-12-21T04:04:45.569Z,22.00
2018-12-21T04:07:16.269Z,22.10
2018-12-21T04:09:45.660Z,22.10
2018-12-21T04:12:14.901Z,22.10
2018-12-21T04:14:44.169Z,22.20
2018-12-21T04:17:13.456Z,22.10
2018-12-21T04:19:42.817Z,22.10
2018-12-21T04:22:12.105Z,22.00
2018-12-21T04:24:41.432Z,22.00
2018-12-21T04:27:10.729Z,22.00
2018-12-21T04:29:40.048Z,22.00
2018-12-21T04:32:09.311Z,22.00
2018-12-21T04:34:39.667Z,21.90
2018-12-21T04:37:08.937Z,21.90
2018-12-21T04:39:38.358Z,21.90
2018-12-21T04:42:07.622Z,21.80
2018-12-21T04:44:37.023Z,21.80
2018-12-21T04:47:06.335Z,21.80
2018-12-21T04:49:35.517Z,21.80
2018-12-21T04:52:05.022Z,21.80
2018-12-21T04:54:34.176Z,21.80
2018-12-21T04:57:03.397Z,21.80
2018-12-21T04:59:32.615Z,21.70
2018-12-21T05:02:02.061Z,21.80
2018-12-21T05:04:31.292Z,21.80
2018-12-21T05:07:00.581Z,21.60
2018-12-21T05:09:30.071Z,21.70
2018-12-21T05:11:59.392Z,21.70
2018-12-21T05:14:28.714Z,21.80
2018-12-21T05:16:57.920Z,21.80
2018-12-21T05:19:27.213Z,21.70
2018-12-21T05:21:57.028Z,21.70
2018-12-21T05:24:26.258Z,21.70
2018-12-21T05:26:55.592Z,21.80
2018-12-21T05:29:24.807Z,21.80
2018-12-21T05:31:54.030Z,21.90
2018-12-21T05:34:23.266Z,21.90
2018-12-21T05:36:52.502Z,21.80
2018-12-21T05:39:21.820Z,21.70
2018-12-21T05:41:51.002Z,21.60
2018-12-21T05:44:20.196Z,21.50
2018-12-21T05:46:49.460Z,21.40
2018-12-21T05:49:18.719Z,21.50
2018-12-21T05:51:47.893Z,21.70
2018-12-21T05:54:17.174Z,21.70
2018-12-21T05:56:46.615Z,21.40
2018-12-21T05:59:15.960Z,21.40
2018-12-21T06:01:45.247Z,21.50
2018-12-21T06:04:14.467Z,21.60
2018-12-21T06:06:43.712Z,21.40
2018-12-21T06:09:12.868Z,21.10
2018-12-21T06:11:42.727Z,21.00
2018-12-21T06:14:12.080Z,20.80
2018-12-21T06:16:41.243Z,20.80
2018-12-21T06:19:12.462Z,20.70
2018-12-21T06:21:41.848Z,20.90
2018-12-21T06:24:11.285Z,20.90
2018-12-21T06:26:40.808Z,21.00
2018-12-21T06:29:10.075Z,20.80
2018-12-21T06:31:39.229Z,20.80
2018-12-21T06:34:08.605Z,20.90
2018-12-21T06:36:37.979Z,20.70
2018-12-21T06:39:07.775Z,20.80
2018-12-21T06:41:36.982Z,20.80
2018-12-21T06:44:06.180Z,20.70
2018-12-21T06:46:35.405Z,20.60
2018-12-21T06:49:04.608Z,20.60
2018-12-21T06:51:33.843Z,20.50
2018-12-21T06:54:03.041Z,20.50
2018-12-21T06:56:32.807Z,20.30
2018-12-21T06:59:01.996Z,20.20
2018-12-21T07:01:31.248Z,20.20
2018-12-21T07:04:00.675Z,20.30
2018-12-21T07:06:29.842Z,20.40
2018-12-21T07:08:59.232Z,20.20
2018-12-21T07:11:28.475Z,20.20
2018-12-21T07:13:57.977Z,20.20
2018-12-21T07:16:27.204Z,20.00
2018-12-21T07:18:56.452Z,19.90
2018-12-21T07:21:26.507Z,19.80
2018-12-21T07:23:57.077Z,19.60
2018-12-21T07:26:26.415Z,19.60
2018-12-21T07:28:55.656Z,19.30
2018-12-21T07:31:24.887Z,19.30
2018-12-21T07:33:54.127Z,19.30
2018-12-21T07:36:23.383Z,19.40
2018-12-21T07:38:52.668Z,19.50
2018-12-21T07:41:21.905Z,19.10
2018-12-21T07:43:51.185Z,19.20
2018-12-21T07:46:22.085Z,19.20
2018-12-21T07:48:51.370Z,19.30
2018-12-21T07:51:20.623Z,19.30
2018-12-21T07:53:49.854Z,19.20
2018-12-21T07:56:19.127Z,19.10
2018-12-21T07:58:56.948Z,19.20
2018-12-21T08:01:19.869Z,19.20
2018-12-21T08:03:49.089Z,19.10
2018-12-21T08:06:18.344Z,19.00
2018-12-21T08:08:47.648Z,18.80
2018-12-21T08:11:16.916Z,18.70
2018-12-21T08:13:46.140Z,18.80
2018-12-21T08:16:16.093Z,18.70
2018-12-21T08:18:45.376Z,18.60
2018-12-21T08:21:14.599Z,18.70
2018-12-21T08:23:44.423Z,18.50
2018-12-21T08:26:13.853Z,18.60
2018-12-21T08:28:43.052Z,18.30
2018-12-21T08:31:12.614Z,18.40
2018-12-21T08:33:41.860Z,18.40
2018-12-21T08:36:11.117Z,18.30
2018-12-21T08:38:40.342Z,18.50
2018-12-21T08:41:09.682Z,18.40
2018-12-21T08:43:38.911Z,18.50
2018-12-21T08:46:08.131Z,18.60
2018-12-21T08:48:37.349Z,18.60
2018-12-21T08:51:06.575Z,18.70
2018-12-21T08:53:35.733Z,18.70
2018-12-21T08:56:05.185Z,18.70
2018-12-21T08:58:34.461Z,18.70
2018-12-21T09:01:03.759Z,18.60
2018-12-21T09:03:33.024Z,18.60
2018-12-21T09:06:02.330Z,18.30
2018-12-21T09:08:31.499Z,18.20
2018-12-21T09:11:00.769Z,18.30
2018-12-21T09:13:30.155Z,18.40
2018-12-21T09:15:59.399Z,18.40
2018-12-21T09:18:29.195Z,18.30
2018-12-21T09:20:58.405Z,18.40
2018-12-21T09:23:27.815Z,18.40
2018-12-21T09:25:57.071Z,18.40
2018-12-21T09:28:26.303Z,18.40
2018-12-21T09:30:55.603Z,18.30
2018-12-21T09:33:25.075Z,18.20
2018-12-21T09:35:54.348Z,18.30
2018-12-21T09:38:23.683Z,18.20
2018-12-21T09:40:53.056Z,18.10
2018-12-21T09:43:22.298Z,18.10
2018-12-21T09:45:51.469Z,17.80
2018-12-21T09:48:20.621Z,17.80
2018-12-21T09:50:49.958Z,17.80
2018-12-21T09:53:19.287Z,17.90
2018-12-21T09:55:48.505Z,17.90
2018-12-21T09:58:17.740Z,18.00
2018-12-21T10:00:47.018Z,17.90
2018-12-21T10:03:16.244Z,18.00
2018-12-21T10:05:45.491Z,18.00
2018-12-21T10:08:15.033Z,18.00
2018-12-21T10:10:44.251Z,17.80
2018-12-21T10:13:13.516Z,17.90
2018-12-21T10:15:42.817Z,18.00
2018-12-21T10:18:12.077Z,18.00
2018-12-21T10:20:41.653Z,18.10
2018-12-21T10:23:10.884Z,18.10
2018-12-21T10:25:40.070Z,17.80
2018-12-21T10:28:09.245Z,17.90
2018-12-21T10:30:38.473Z,17.70
2018-12-21T10:33:09.765Z,17.70
2018-12-21T10:35:39.145Z,17.40
2018-12-21T10:38:08.358Z,17.50
2018-12-21T10:40:37.573Z,17.50
2018-12-21T10:43:06.717Z,17.60
2018-12-21T10:45:41.585Z,17.80
2018-12-21T10:48:09.153Z,18.00
2018-12-21T10:50:38.463Z,18.00
2018-12-21T10:53:07.775Z,17.80
2018-12-21T10:55:37.008Z,17.90
2018-12-21T10:58:06.296Z,17.70
2018-12-21T11:00:35.545Z,17.80
2018-12-21T11:03:04.734Z,17.80
2018-12-21T11:05:35.428Z,17.90
2018-12-21T11:08:04.639Z,18.00
2018-12-21T11:10:34.151Z,18.00
2018-12-21T11:13:04.672Z,18.10
2018-12-21T11:15:36.870Z,18.10
2018-12-21T11:18:06.176Z,18.10
2018-12-21T11:20:35.502Z,17.90
2018-12-21T11:23:05.172Z,18.00
2018-12-21T11:25:34.432Z,18.00
2018-12-21T11:28:03.666Z,18.00
2018-12-21T11:30:37.600Z,18.10
2018-12-21T11:33:06.966Z,18.10
2018-12-21T11:35:47.439Z,18.00
2018-12-21T11:38:17.841Z,18.10
2018-12-21T11:40:47.312Z,17.90
2018-12-21T11:43:19.705Z,17.90
2018-12-21T11:45:50.031Z,17.80
2018-12-21T11:48:26.043Z,17.90
2018-12-21T11:50:55.379Z,17.90
2018-12-21T11:53:24.739Z,17.80
2018-12-21T11:55:53.958Z,17.70
2018-12-21T11:58:23.148Z,17.90
2018-12-21T12:00:52.378Z,17.80
2018-12-21T12:03:21.754Z,17.90
2018-12-21T12:05:51.090Z,17.80
2018-12-21T12:08:20.448Z,17.70
2018-12-21T12:10:49.702Z,17.70
2018-12-21T12:13:20.047Z,17.60
2018-12-21T12:15:49.269Z,17.40
2018-12-21T12:18:20.499Z,17.30
2018-12-21T12:20:50.292Z,17.00
2018-12-21T12:23:20.800Z,16.90
2018-12-21T12:25:50.266Z,16.70
2018-12-21T12:28:19.552Z,16.60
2018-12-21T12:30:48.767Z,16.50
2018-12-21T12:33:18.062Z,16.40
2018-12-21T12:35:48.373Z,16.30
2018-12-21T12:38:18.061Z,16.30
2018-12-21T12:40:47.543Z,16.30
2018-12-21T12:43:16.812Z,16.20
2018-12-21T12:45:46.051Z,16.30
2018-12-21T12:48:15.358Z,16.30
2018-12-21T12:50:44.637Z,16.50
2018-12-21T12:53:13.903Z,16.60
2018-12-21T12:55:44.417Z,16.50
2018-12-21T12:58:14.436Z,16.70
2018-12-21T13:00:44.994Z,17.00
2018-12-21T13:03:14.277Z,17.30
2018-12-21T13:05:43.551Z,17.20
2018-12-21T13:08:12.775Z,17.10
2018-12-21T13:10:41.996Z,17.00
2018-12-21T13:13:11.325Z,17.50
2018-12-21T13:15:41.124Z,18.10
2018-12-21T13:18:10.397Z,18.40
2018-12-21T13:20:39.699Z,18.40
2018-12-21T13:23:09.041Z,18.20
2018-12-21T13:25:38.554Z,18.20
2018-12-21T13:28:07.793Z,18.20
2018-12-21T13:30:37.055Z,18.00
2018-12-21T13:33:06.283Z,18.10
2018-12-21T13:35:35.507Z,18.10
2018-12-21T13:38:04.730Z,18.30
2018-12-21T13:40:35.307Z,18.40
2018-12-21T13:43:04.845Z,18.20
2018-12-21T13:45:34.045Z,18.00
2018-12-21T13:48:03.335Z,17.90
2018-12-21T13:50:32.527Z,18.00
2018-12-21T13:53:01.862Z,18.10
2018-12-21T13:55:31.130Z,18.00
2018-12-21T13:58:00.342Z,18.30
2018-12-21T14:00:30.832Z,18.30
2018-12-21T14:03:00.327Z,18.50
2018-12-21T14:05:29.750Z,18.80
2018-12-21T14:08:00.027Z,18.70
2018-12-21T14:10:29.369Z,18.40
2018-12-21T14:12:58.585Z,18.20
2018-12-21T14:15:27.806Z,18.00
2018-12-21T14:17:57.469Z,18.20
2018-12-21T14:20:27.303Z,18.30
2018-12-21T14:22:57.656Z,18.40
2018-12-21T14:25:29.047Z,18.20
2018-12-21T14:27:58.650Z,18.30
2018-12-21T14:30:27.901Z,18.10
2018-12-21T14:32:57.077Z,18.10
2018-12-21T14:35:26.377Z,18.10
2018-12-21T14:37:55.570Z,18.00
2018-12-21T14:40:36.019Z,18.30
2018-12-21T14:43:05.341Z,18.40
2018-12-21T14:45:35.383Z,18.60
2018-12-21T14:48:04.625Z,18.60
2018-12-21T14:50:33.833Z,18.80
2018-12-21T14:53:03.053Z,18.90
2018-12-21T14:55:37.439Z,19.00
2018-12-21T14:58:03.728Z,19.60
2018-12-21T15:00:32.941Z,20.30
2018-12-21T15:03:02.153Z,20.90
2018-12-21T15:05:31.439Z,21.30
2018-12-21T15:08:00.655Z,21.40
2018-12-21T15:10:29.918Z,22.20
2018-12-21T15:12:59.155Z,22.10
2018-12-21T15:15:28.543Z,22.50
2018-12-21T15:17:57.781Z,22.60
2018-12-21T15:20:27.045Z,23.00
2018-12-21T15:22:56.272Z,23.60
2018-12-21T15:25:26.081Z,24.30
2018-12-21T15:27:55.469Z,24.60
2018-12-21T15:30:24.655Z,24.60
2018-12-21T15:32:54.043Z,24.80
2018-12-21T15:35:24.417Z,25.00
2018-12-21T15:37:53.628Z,25.40
2018-12-21T15:40:22.794Z,25.70
2018-12-21T15:42:52.281Z,26.10
2018-12-21T15:45:21.534Z,26.10
2018-12-21T15:47:50.786Z,26.50
2018-12-21T15:50:19.992Z,26.50
2018-12-21T15:52:49.260Z,26.90
2018-12-21T15:55:18.514Z,27.30
2018-12-21T15:57:47.709Z,27.40
2018-12-21T16:00:16.966Z,27.50
2018-12-21T16:02:46.204Z,27.10
2018-12-21T16:05:16.381Z,27.60
2018-12-21T16:07:45.662Z,27.40
2018-12-21T16:10:14.961Z,27.40
2018-12-21T16:12:44.128Z,27.70
2018-12-21T16:15:13.337Z,27.90
2018-12-21T16:17:42.556Z,27.10
2018-12-21T16:20:12.403Z,26.50
2018-12-21T16:22:42.585Z,27.00
2018-12-21T16:25:12.207Z,27.70
2018-12-21T16:27:41.358Z,28.40
2018-12-21T16:30:11.422Z,28.60
2018-12-21T16:32:40.637Z,28.20
2018-12-21T16:35:09.903Z,28.10
2018-12-21T16:37:39.082Z,28.20
2018-12-21T16:40:09.400Z,27.70
2018-12-21T16:42:38.574Z,28.20
2018-12-21T16:45:09.635Z,28.50
2018-12-21T16:47:39.068Z,28.60
2018-12-21T16:50:10.908Z,28.00
2018-12-21T16:52:40.220Z,27.90
2018-12-21T16:55:09.489Z,27.50
2018-12-21T16:57:38.724Z,28.20
2018-12-21T17:00:11.205Z,28.00
2018-12-21T17:02:40.682Z,27.10
2018-12-21T17:05:10.103Z,27.10
2018-12-21T17:07:39.414Z,26.80
2018-12-21T17:10:11.251Z,27.30
2018-12-21T17:12:40.845Z,27.70
2018-12-21T17:15:11.163Z,28.00
2018-12-21T17:17:40.378Z,27.00
2018-12-21T17:20:09.859Z,27.00
2018-12-21T17:22:39.019Z,27.50
2018-12-21T17:25:09.000Z,27.00
2018-12-21T17:27:39.783Z,27.50
2018-12-21T17:30:10.444Z,27.60
2018-12-21T17:32:39.746Z,27.50
2018-12-21T17:35:09.034Z,26.30
2018-12-21T17:37:38.279Z,26.20
2018-12-21T17:40:08.887Z,27.40
2018-12-21T17:42:38.140Z,27.10
2018-12-21T17:45:08.661Z,27.50
2018-12-21T17:47:38.083Z,27.60
2018-12-21T17:50:08.324Z,26.90
2018-12-21T17:52:37.586Z,26.60
2018-12-21T17:55:07.378Z,27.60
2018-12-21T17:57:36.886Z,27.60
2018-12-21T18:00:12.826Z,27.90
2018-12-21T18:02:43.104Z,28.10
2018-12-21T18:05:12.646Z,27.90
2018-12-21T18:07:42.157Z,28.50
2018-12-21T18:10:12.497Z,27.30
2018-12-21T18:12:41.777Z,27.60
2018-12-21T18:15:11.148Z,27.30
2018-12-21T18:17:40.328Z,26.80
2018-12-21T18:20:10.943Z,26.30
2018-12-21T18:22:40.287Z,27.20
2018-12-21T18:25:13.244Z,27.50
2018-12-21T18:27:42.895Z,27.90
2018-12-21T18:30:16.456Z,28.50
2018-12-21T18:32:46.729Z,28.50
2018-12-21T18:35:15.948Z,28.90
2018-12-21T18:37:48.097Z,28.30
2018-12-21T18:40:17.456Z,28.30
2018-12-21T18:42:46.684Z,28.70
2018-12-21T18:45:15.901Z,28.80
2018-12-21T18:47:45.804Z,28.20
2018-12-21T18:50:15.188Z,28.10
2018-12-21T18:52:44.426Z,28.60
2018-12-21T18:55:15.490Z,29.00
2018-12-21T18:57:44.858Z,28.30
2018-12-21T19:00:15.575Z,28.90
2018-12-21T19:02:45.191Z,29.40
2018-12-21T19:05:14.537Z,29.00
2018-12-21T19:07:44.150Z,28.20
2018-12-21T19:10:13.569Z,28.10
2018-12-21T19:12:42.774Z,28.10
2018-12-21T19:15:12.083Z,27.60
2018-12-21T19:17:41.455Z,28.10
2018-12-21T19:20:10.987Z,27.90
2018-12-21T19:22:40.175Z,28.20
2018-12-21T19:25:09.498Z,27.60
2018-12-21T19:27:38.948Z,27.90
2018-12-21T19:30:09.415Z,28.90
2018-12-21T19:32:38.745Z,29.30
2018-12-21T19:35:08.758Z,29.60
2018-12-21T19:37:38.056Z,29.70
2018-12-21T19:40:09.056Z,28.80
2018-12-21T19:42:39.314Z,28.70
2018-12-21T19:45:09.195Z,28.90
2018-12-21T19:47:38.448Z,28.40
2018-12-21T19:50:09.772Z,28.70
2018-12-21T19:52:39.146Z,29.00
2018-12-21T19:55:15.473Z,29.30
2018-12-21T19:57:44.862Z,29.50
2018-12-21T20:00:14.171Z,29.60
2018-12-21T20:02:43.399Z,29.30
2018-12-21T20:05:12.643Z,28.90
2018-12-21T20:07:41.809Z,29.10
2018-12-21T20:10:12.120Z,29.10
2018-12-21T20:12:41.325Z,29.00
2018-12-21T20:15:10.826Z,28.60
2018-12-21T20:17:40.092Z,28.20
2018-12-21T20:20:10.185Z,28.00
2018-12-21T20:22:39.436Z,28.40
2018-12-21T20:25:09.820Z,28.70
2018-12-21T20:27:39.156Z,29.00
2018-12-21T20:30:13.055Z,28.70
2018-12-21T20:32:42.429Z,28.90
2018-12-21T20:35:11.775Z,29.00
2018-12-21T20:37:41.503Z,29.10
2018-12-21T20:40:13.529Z,29.30
2018-12-21T20:42:42.921Z,29.10
2018-12-21T20:45:12.636Z,29.10
2018-12-21T20:47:41.895Z,29.10
2018-12-21T20:50:14.415Z,28.70
2018-12-21T20:52:43.776Z,28.80
2018-12-21T20:55:13.131Z,28.70
2018-12-21T20:57:44.384Z,28.90
2018-12-21T21:00:17.664Z,28.90
2018-12-21T21:02:47.315Z,28.90
2018-12-21T21:05:16.628Z,28.50
2018-12-21T21:07:46.072Z,28.70
2018-12-21T21:10:15.427Z,28.50
2018-12-21T21:12:44.676Z,28.40
2018-12-21T21:15:15.803Z,28.40
2018-12-21T21:17:45.378Z,27.70
2018-12-21T21:20:16.073Z,27.70
2018-12-21T21:22:45.569Z,27.60
2018-12-21T21:25:18.276Z,26.80
2018-12-21T21:27:51.534Z,26.90
2018-12-21T21:30:22.603Z,26.80
2018-12-21T21:32:52.013Z,26.20
2018-12-21T21:35:21.321Z,26.50
2018-12-21T21:37:50.538Z,25.90
2018-12-21T21:40:21.546Z,25.50
2018-12-21T21:42:57.507Z,25.40
2018-12-21T21:45:23.125Z,25.80
2018-12-21T21:47:52.440Z,25.70
2018-12-21T21:50:24.538Z,24.90
2018-12-21T21:52:54.165Z,24.90
2018-12-21T21:55:24.251Z,25.10
2018-12-21T21:57:57.145Z,24.60
2018-12-21T22:00:26.519Z,24.40
2018-12-21T22:02:55.927Z,24.60
2018-12-21T22:05:25.297Z,24.50
2018-12-21T22:07:55.404Z,24.10
2018-12-21T22:10:24.761Z,24.20
2018-12-21T22:12:54.389Z,23.70
2018-12-21T22:15:23.769Z,23.80
2018-12-21T22:17:53.072Z,23.60
2018-12-21T22:20:22.416Z,23.20
2018-12-21T22:22:51.681Z,23.20
2018-12-21T22:25:20.834Z,23.10
2018-12-21T22:27:50.839Z,23.00
2018-12-21T22:30:20.199Z,22.80
2018-12-21T22:32:49.721Z,22.80
2018-12-21T22:35:18.940Z,22.90
2018-12-21T22:37:48.240Z,23.10
2018-12-21T22:40:17.608Z,22.70
2018-12-21T22:42:46.876Z,22.90
2018-12-21T22:45:16.147Z,22.90
2018-12-21T22:47:45.433Z,22.70
2018-12-21T22:50:14.750Z,22.60
2018-12-21T22:52:44.024Z,22.60
2018-12-21T22:55:13.226Z,22.50
2018-12-21T22:57:42.473Z,22.50
2018-12-21T23:00:14.367Z,22.40
2018-12-21T23:02:43.737Z,22.00
2018-12-21T23:05:12.970Z,21.60
2018-12-21T23:07:42.456Z,21.40
2018-12-21T23:10:11.738Z,21.30
2018-12-21T23:12:41.084Z,21.20
2018-12-21T23:15:10.558Z,21.30
2018-12-21T23:17:39.835Z,21.20
2018-12-21T23:20:09.079Z,20.80
2018-12-21T23:22:38.335Z,20.80
2018-12-21T23:25:07.694Z,20.90
2018-12-21T23:27:37.130Z,20.90
2018-12-21T23:30:08.791Z,20.90
2018-12-21T23:32:38.419Z,20.80
2018-12-21T23:35:07.820Z,20.30
2018-12-21T23:37:37.231Z,20.30
2018-12-21T23:40:07.571Z,20.20
2018-12-21T23:42:37.061Z,20.20
2018-12-21T23:45:06.950Z,20.30
2018-12-21T23:47:36.195Z,20.00
2018-12-21T23:50:06.060Z,20.20
2018-12-21T23:52:35.322Z,19.80
2018-12-21T23:55:04.745Z,20.00
2018-12-21T23:57:33.972Z,20.20
